sensor_id;sensor_type;location;lat;lon;timestamp;pressure;altitude;pressure_sealevel;temperature;humidity
66664;BME280;59683;51.428;-1.994;2024-01-15T00:00:17;100289.44;;;2.04;100.00
66664;BME280;59683;51.428;-1.994;2024-01-15T00:02:43;100281.75;;;2.01;100.00
66664;BME280;59683;51.428;-1.994;2024-01-15T00:05:08;100281.81;;;1.99;100.00
66664;BME280;59683;51.428;-1.994;2024-01-15T00:07:33;100272.44;;;1.95;100.00
66664;BME280;59683;51.428;-1.994;2024-01-15T00:09:59;100267.53;;;1.89;100.00
66664;BME280;59683;51.428;-1.994;2024-01-15T00:12:24;100275.50;;;1.86;100.00
66664;BME280;59683;51.428;-1.994;2024-01-15T00:14:50;100268.75;;;1.82;100.00
66664;BME280;59683;51.428;-1.994;2024-01-15T00:17:15;100279.44;;;1.77;100.00
66664;BME280;59683;51.428;-1.994;2024-01-15T00:19:40;100271.75;;;1.74;100.00
66664;BME280;59683;51.428;-1.994;2024-01-15T00:22:06;100264.91;;;1.72;100.00
66664;BME280;59683;51.428;-1.994;2024-01-15T00:24:31;100253.84;;;1.66;100.00
66664;BME280;59683;51.428;-1.994;2024-01-15T00:26:56;100262.66;;;1.64;100.00
66664;BME280;59683;51.428;-1.994;2024-01-15T00:29:22;100259.34;;;1.60;100.00
66664;BME280;59683;51.428;-1.994;2024-01-15T00:31:47;100256.00;;;1.58;100.00
66664;BME280;59683;51.428;-1.994;2024-01-15T00:34:13;100247.28;;;1.58;100.00
66664;BME280;59683;51.428;-1.994;2024-01-15T00:36:38;100245.47;;;1.60;100.00
66664;BME280;59683;51.428;-1.994;2024-01-15T00:39:03;100245.56;;;1.58;100.00
66664;BME280;59683;51.428;-1.994;2024-01-15T00:41:30;100237.78;;;1.57;100.00
66664;BME280;59683;51.428;-1.994;2024-01-15T00:43:56;100234.44;;;1.55;100.00
66664;BME280;59683;51.428;-1.994;2024-01-15T00:46:21;100236.25;;;1.53;100.00
66664;BME280;59683;51.428;-1.994;2024-01-15T00:48:47;100231.16;;;1.50;100.00
66664;BME280;59683;51.428;-1.994;2024-01-15T00:51:12;100231.31;;;1.46;100.00
66664;BME280;59683;51.428;-1.994;2024-01-15T00:53:38;100228.88;;;1.43;100.00
66664;BME280;59683;51.428;-1.994;2024-01-15T00:56:04;100225.47;;;1.41;100.00
66664;BME280;59683;51.428;-1.994;2024-01-15T00:58:29;100225.56;;;1.40;100.00
66664;BME280;59683;51.428;-1.994;2024-01-15T01:00:54;100225.63;;;1.38;100.00
66664;BME280;59683;51.428;-1.994;2024-01-15T01:03:20;100230.09;;;1.36;100.00
66664;BME280;59683;51.428;-1.994;2024-01-15T01:05:48;100222.50;;;1.32;100.00
66664;BME280;59683;51.428;-1.994;2024-01-15T01:08:15;100227.00;;;1.28;100.00
66664;BME280;59683;51.428;-1.994;2024-01-15T01:10:40;100226.22;;;1.26;100.00
66664;BME280;59683;51.428;-1.994;2024-01-15T01:13:08;100222.81;;;1.24;100.00
66664;BME280;59683;51.428;-1.994;2024-01-15T01:15:33;100220.22;;;1.24;100.00
66664;BME280;59683;51.428;-1.994;2024-01-15T01:17:59;100207.34;;;1.21;100.00
66664;BME280;59683;51.428;-1.994;2024-01-15T01:20:24;100216.94;;;1.20;100.00
66664;BME280;59683;51.428;-1.994;2024-01-15T01:22:49;100222.16;;;1.20;100.00
66664;BME280;59683;51.428;-1.994;2024-01-15T01:25:15;100216.84;;;1.22;100.00
66664;BME280;59683;51.428;-1.994;2024-01-15T01:27:40;100210.72;;;1.23;100.00
66664;BME280;59683;51.428;-1.994;2024-01-15T01:30:06;100210.56;;;1.26;100.00
66664;BME280;59683;51.428;-1.994;2024-01-15T01:32:32;100206.34;;;1.24;100.00
66664;BME280;59683;51.428;-1.994;2024-01-15T01:34:57;100215.00;;;1.24;100.00
66664;BME280;59683;51.428;-1.994;2024-01-15T01:37:23;100212.47;;;1.23;100.00
66664;BME280;59683;51.428;-1.994;2024-01-15T01:39:48;100209.97;;;1.21;100.00
66664;BME280;59683;51.428;-1.994;2024-01-15T01:42:13;100202.06;;;1.23;100.00
66664;BME280;59683;51.428;-1.994;2024-01-15T01:44:39;100199.34;;;1.24;100.00
66664;BME280;59683;51.428;-1.994;2024-01-15T01:47:05;100198.38;;;1.27;100.00
66664;BME280;59683;51.428;-1.994;2024-01-15T01:49:31;100198.25;;;1.30;100.00
66664;BME280;59683;51.428;-1.994;2024-01-15T01:51:58;100191.25;;;1.30;100.00
66664;BME280;59683;51.428;-1.994;2024-01-15T01:54:26;100193.81;;;1.32;100.00
66664;BME280;59683;51.428;-1.994;2024-01-15T01:56:54;100194.69;;;1.31;100.00
66664;BME280;59683;51.428;-1.994;2024-01-15T01:59:21;100201.63;;;1.32;100.00
66664;BME280;59683;51.428;-1.994;2024-01-15T02:01:48;100200.75;;;1.31;100.00
66664;BME280;59683;51.428;-1.994;2024-01-15T02:04:15;100196.47;;;1.30;100.00
66664;BME280;59683;51.428;-1.994;2024-01-15T02:06:40;100206.06;;;1.30;100.00
66664;BME280;59683;51.428;-1.994;2024-01-15T02:09:07;100200.84;;;1.30;100.00
66664;BME280;59683;51.428;-1.994;2024-01-15T02:11:33;100202.66;;;1.28;100.00
66664;BME280;59683;51.428;-1.994;2024-01-15T02:13:59;100201.81;;;1.27;100.00
66664;BME280;59683;51.428;-1.994;2024-01-15T02:16:24;100198.31;;;1.28;100.00
66664;BME280;59683;51.428;-1.994;2024-01-15T02:18:49;100205.28;;;1.28;100.00
66664;BME280;59683;51.428;-1.994;2024-01-15T02:21:15;100206.16;;;1.28;100.00
66664;BME280;59683;51.428;-1.994;2024-01-15T02:23:40;100208.56;;;1.31;100.00
66664;BME280;59683;51.428;-1.994;2024-01-15T02:26:06;100211.19;;;1.31;100.00
66664;BME280;59683;51.428;-1.994;2024-01-15T02:28:33;100206.06;;;1.30;100.00
66664;BME280;59683;51.428;-1.994;2024-01-15T02:30:58;100203.44;;;1.30;100.00
66664;BME280;59683;51.428;-1.994;2024-01-15T02:33:24;100204.25;;;1.32;100.00
66664;BME280;59683;51.428;-1.994;2024-01-15T02:35:49;100202.38;;;1.34;100.00
66664;BME280;59683;51.428;-1.994;2024-01-15T02:38:17;100206.75;;;1.33;100.00
66664;BME280;59683;51.428;-1.994;2024-01-15T02:40:46;100201.69;;;1.30;100.00
66664;BME280;59683;51.428;-1.994;2024-01-15T02:43:12;100194.94;;;1.26;100.00
66664;BME280;59683;51.428;-1.994;2024-01-15T02:45:38;100199.44;;;1.23;100.00
66664;BME280;59683;51.428;-1.994;2024-01-15T02:48:04;100196.22;;;1.17;100.00
66664;BME280;59683;51.428;-1.994;2024-01-15T02:50:29;100196.50;;;1.11;100.00
66664;BME280;59683;51.428;-1.994;2024-01-15T02:52:55;100191.72;;;1.02;100.00
66664;BME280;59683;51.428;-1.994;2024-01-15T02:55:20;100208.56;;;0.95;100.00
66664;BME280;59683;51.428;-1.994;2024-01-15T02:57:46;100202.72;;;0.90;100.00
66664;BME280;59683;51.428;-1.994;2024-01-15T03:00:11;100208.13;;;0.85;100.00
66664;BME280;59683;51.428;-1.994;2024-01-15T03:02:38;100202.22;;;0.82;100.00
66664;BME280;59683;51.428;-1.994;2024-01-15T03:05:11;100209.97;;;0.83;100.00
66664;BME280;59683;51.428;-1.994;2024-01-15T03:07:37;100209.06;;;0.84;100.00
66664;BME280;59683;51.428;-1.994;2024-01-15T03:10:02;100209.69;;;0.89;100.00
66664;BME280;59683;51.428;-1.994;2024-01-15T03:12:28;100208.78;;;0.90;100.00
66664;BME280;59683;51.428;-1.994;2024-01-15T03:14:53;100206.38;;;0.86;100.00
66664;BME280;59683;51.428;-1.994;2024-01-15T03:17:19;100209.28;;;0.80;100.00
66664;BME280;59683;51.428;-1.994;2024-01-15T03:19:44;100213.69;;;0.78;100.00
66664;BME280;59683;51.428;-1.994;2024-01-15T03:22:09;100206.81;;;0.77;100.00
66664;BME280;59683;51.428;-1.994;2024-01-15T03:24:35;100204.97;;;0.79;100.00
66664;BME280;59683;51.428;-1.994;2024-01-15T03:27:01;100206.72;;;0.78;100.00
66664;BME280;59683;51.428;-1.994;2024-01-15T03:29:26;100209.28;;;0.80;100.00
66664;BME280;59683;51.428;-1.994;2024-01-15T03:31:52;100208.28;;;0.82;100.00
66664;BME280;59683;51.428;-1.994;2024-01-15T03:34:17;100202.88;;;0.87;100.00
66664;BME280;59683;51.428;-1.994;2024-01-15T03:36:43;100200.75;;;0.95;100.00
66664;BME280;59683;51.428;-1.994;2024-01-15T03:39:08;100199.81;;;0.96;100.00
66664;BME280;59683;51.428;-1.994;2024-01-15T03:41:34;100201.47;;;0.99;100.00
66664;BME280;59683;51.428;-1.994;2024-01-15T03:43:59;100190.09;;;1.00;100.00
66664;BME280;59683;51.428;-1.994;2024-01-15T03:46:25;100198.06;;;0.96;100.00
66664;BME280;59683;51.428;-1.994;2024-01-15T03:48:50;100199.13;;;0.92;100.00
66664;BME280;59683;51.428;-1.994;2024-01-15T03:51:18;100200.88;;;0.92;100.00
66664;BME280;59683;51.428;-1.994;2024-01-15T03:53:44;100198.19;;;0.93;100.00
66664;BME280;59683;51.428;-1.994;2024-01-15T03:56:10;100189.53;;;0.93;100.00
66664;BME280;59683;51.428;-1.994;2024-01-15T03:58:35;100200.75;;;0.95;100.00
66664;BME280;59683;51.428;-1.994;2024-01-15T04:01:01;100195.41;;;0.98;100.00
66664;BME280;59683;51.428;-1.994;2024-01-15T04:03:26;100192.56;;;1.03;100.00
66664;BME280;59683;51.428;-1.994;2024-01-15T04:05:52;100195.88;;;1.06;100.00
66664;BME280;59683;51.428;-1.994;2024-01-15T04:08:17;100194.03;;;1.08;100.00
66664;BME280;59683;51.428;-1.994;2024-01-15T04:10:42;100192.28;;;1.09;100.00
66664;BME280;59683;51.428;-1.994;2024-01-15T04:13:08;100188.69;;;1.11;100.00
66664;BME280;59683;51.428;-1.994;2024-01-15T04:15:33;100185.84;;;1.16;100.00
66664;BME280;59683;51.428;-1.994;2024-01-15T04:17:59;100184.25;;;1.13;100.00
66664;BME280;59683;51.428;-1.994;2024-01-15T04:20:26;100191.28;;;1.11;100.00
66664;BME280;59683;51.428;-1.994;2024-01-15T04:22:51;100198.03;;;1.15;100.00
66664;BME280;59683;51.428;-1.994;2024-01-15T04:25:17;100196.97;;;1.19;100.00
66664;BME280;59683;51.428;-1.994;2024-01-15T04:27:42;100185.66;;;1.20;100.00
66664;BME280;59683;51.428;-1.994;2024-01-15T04:30:08;100194.84;;;1.28;100.00
66664;BME280;59683;51.428;-1.994;2024-01-15T04:32:33;100181.75;;;1.29;100.00
66664;BME280;59683;51.428;-1.994;2024-01-15T04:34:59;100184.09;;;1.16;100.00
66664;BME280;59683;51.428;-1.994;2024-01-15T04:37:24;100182.00;;;1.06;100.00
66664;BME280;59683;51.428;-1.994;2024-01-15T04:39:50;100175.09;;;0.86;100.00
66664;BME280;59683;51.428;-1.994;2024-01-15T04:42:18;100170.38;;;0.56;100.00
66664;BME280;59683;51.428;-1.994;2024-01-15T04:44:43;100172.22;;;0.35;100.00
66664;BME280;59683;51.428;-1.994;2024-01-15T04:47:08;100179.47;;;0.08;100.00
66664;BME280;59683;51.428;-1.994;2024-01-15T04:49:34;100177.25;;;-0.21;100.00
66664;BME280;59683;51.428;-1.994;2024-01-15T04:51:59;100175.31;;;-0.37;100.00
66664;BME280;59683;51.428;-1.994;2024-01-15T04:54:24;100182.94;;;-0.54;100.00
66664;BME280;59683;51.428;-1.994;2024-01-15T04:56:50;100172.63;;;-0.78;100.00
66664;BME280;59683;51.428;-1.994;2024-01-15T04:59:15;100180.25;;;-0.95;100.00
66664;BME280;59683;51.428;-1.994;2024-01-15T05:01:41;100177.41;;;-1.11;100.00
66664;BME280;59683;51.428;-1.994;2024-01-15T05:04:06;100177.88;;;-1.23;100.00
66664;BME280;59683;51.428;-1.994;2024-01-15T05:06:31;100182.66;;;-1.36;100.00
66664;BME280;59683;51.428;-1.994;2024-01-15T05:08:57;100187.19;;;-1.41;100.00
66664;BME280;59683;51.428;-1.994;2024-01-15T05:11:23;100188.88;;;-1.40;100.00
66664;BME280;59683;51.428;-1.994;2024-01-15T05:13:48;100194.41;;;-1.49;100.00
66664;BME280;59683;51.428;-1.994;2024-01-15T05:16:13;100187.88;;;-1.59;100.00
66664;BME280;59683;51.428;-1.994;2024-01-15T05:18:39;100198.34;;;-1.62;100.00
66664;BME280;59683;51.428;-1.994;2024-01-15T05:21:04;100207.16;;;-1.66;100.00
66664;BME280;59683;51.428;-1.994;2024-01-15T05:23:31;100207.16;;;-1.66;100.00
66664;BME280;59683;51.428;-1.994;2024-01-15T05:25:57;100211.84;;;-1.76;100.00
66664;BME280;59683;51.428;-1.994;2024-01-15T05:28:22;100215.56;;;-1.85;100.00
66664;BME280;59683;51.428;-1.994;2024-01-15T05:30:47;100216.47;;;-1.86;100.00
66664;BME280;59683;51.428;-1.994;2024-01-15T05:33:13;100213.13;;;-1.88;100.00
66664;BME280;59683;51.428;-1.994;2024-01-15T05:35:38;100222.63;;;-1.88;100.00
66664;BME280;59683;51.428;-1.994;2024-01-15T05:38:04;100228.88;;;-1.94;100.00
66664;BME280;59683;51.428;-1.994;2024-01-15T05:40:29;100230.03;;;-2.03;100.00
66664;BME280;59683;51.428;-1.994;2024-01-15T05:42:54;100228.66;;;-2.13;100.00
66664;BME280;59683;51.428;-1.994;2024-01-15T05:45:20;100231.41;;;-2.17;100.00
66664;BME280;59683;51.428;-1.994;2024-01-15T05:47:45;100235.84;;;-2.21;100.00
66664;BME280;59683;51.428;-1.994;2024-01-15T05:50:11;100240.06;;;-2.18;100.00
66664;BME280;59683;51.428;-1.994;2024-01-15T05:52:36;100233.25;;;-2.21;100.00
66664;BME280;59683;51.428;-1.994;2024-01-15T05:55:02;100235.00;;;-2.22;100.00
66664;BME280;59683;51.428;-1.994;2024-01-15T05:57:27;100247.09;;;-2.22;100.00
66664;BME280;59683;51.428;-1.994;2024-01-15T05:59:53;100237.94;;;-2.32;100.00
66664;BME280;59683;51.428;-1.994;2024-01-15T06:02:19;100240.97;;;-2.46;100.00
66664;BME280;59683;51.428;-1.994;2024-01-15T06:04:44;100232.63;;;-2.56;100.00
66664;BME280;59683;51.428;-1.994;2024-01-15T06:07:09;100238.69;;;-2.55;100.00
66664;BME280;59683;51.428;-1.994;2024-01-15T06:09:35;100251.81;;;-2.61;100.00
66664;BME280;59683;51.428;-1.994;2024-01-15T06:12:00;100249.56;;;-2.72;100.00
66664;BME280;59683;51.428;-1.994;2024-01-15T06:14:25;100255.78;;;-2.78;100.00
66664;BME280;59683;51.428;-1.994;2024-01-15T06:16:52;100262.06;;;-2.85;100.00
66664;BME280;59683;51.428;-1.994;2024-01-15T06:19:17;100255.34;;;-2.92;100.00
66664;BME280;59683;51.428;-1.994;2024-01-15T06:21:42;100252.25;;;-3.05;100.00
66664;BME280;59683;51.428;-1.994;2024-01-15T06:24:08;100242.13;;;-3.12;100.00
66664;BME280;59683;51.428;-1.994;2024-01-15T06:26:35;100257.13;;;-3.24;100.00
66664;BME280;59683;51.428;-1.994;2024-01-15T06:29:00;100251.31;;;-3.30;100.00
66664;BME280;59683;51.428;-1.994;2024-01-15T06:31:26;100240.94;;;-3.30;100.00
66664;BME280;59683;51.428;-1.994;2024-01-15T06:33:51;100248.09;;;-3.38;100.00
66664;BME280;59683;51.428;-1.994;2024-01-15T06:36:16;100248.31;;;-3.48;100.00
66664;BME280;59683;51.428;-1.994;2024-01-15T06:38:43;100255.41;;;-3.54;100.00
66664;BME280;59683;51.428;-1.994;2024-01-15T06:41:09;100249.44;;;-3.56;100.00
66664;BME280;59683;51.428;-1.994;2024-01-15T06:43:35;100244.91;;;-3.48;100.00
66664;BME280;59683;51.428;-1.994;2024-01-15T06:46:00;100256.72;;;-3.39;100.00
66664;BME280;59683;51.428;-1.994;2024-01-15T06:48:25;100250.47;;;-3.32;100.00
66664;BME280;59683;51.428;-1.994;2024-01-15T06:50:51;100259.00;;;-3.29;100.00
66664;BME280;59683;51.428;-1.994;2024-01-15T06:53:16;100258.25;;;-3.32;100.00
66664;BME280;59683;51.428;-1.994;2024-01-15T06:55:41;100255.84;;;-3.38;100.00
66664;BME280;59683;51.428;-1.994;2024-01-15T06:58:07;100242.03;;;-3.39;100.00
66664;BME280;59683;51.428;-1.994;2024-01-15T07:00:32;100246.44;;;-3.41;100.00
66664;BME280;59683;51.428;-1.994;2024-01-15T07:02:58;100249.34;;;-3.53;100.00
66664;BME280;59683;51.428;-1.994;2024-01-15T07:05:24;100247.97;;;-3.67;100.00
66664;BME280;59683;51.428;-1.994;2024-01-15T07:07:49;100243.09;;;-3.77;100.00
66664;BME280;59683;51.428;-1.994;2024-01-15T07:10:15;100238.19;;;-3.88;100.00
66664;BME280;59683;51.428;-1.994;2024-01-15T07:12:44;100248.75;;;-3.96;100.00
66664;BME280;59683;51.428;-1.994;2024-01-15T07:15:10;100231.63;;;-4.00;100.00
66664;BME280;59683;51.428;-1.994;2024-01-15T07:17:35;100238.19;;;-3.88;100.00
66664;BME280;59683;51.428;-1.994;2024-01-15T07:20:07;100252.59;;;-3.78;100.00
66664;BME280;59683;51.428;-1.994;2024-01-15T07:22:35;100248.13;;;-3.73;100.00
66664;BME280;59683;51.428;-1.994;2024-01-15T07:25:00;100251.69;;;-3.77;100.00
66664;BME280;59683;51.428;-1.994;2024-01-15T07:27:25;100259.50;;;-3.78;100.00
66664;BME280;59683;51.428;-1.994;2024-01-15T07:29:51;100261.47;;;-3.88;100.00
66664;BME280;59683;51.428;-1.994;2024-01-15T07:32:17;100259.22;;;-4.00;100.00
66664;BME280;59683;51.428;-1.994;2024-01-15T07:34:42;100263.88;;;-4.15;100.00
66664;BME280;59683;51.428;-1.994;2024-01-15T07:37:08;100254.66;;;-4.25;100.00
66664;BME280;59683;51.428;-1.994;2024-01-15T07:39:33;100260.94;;;-4.35;100.00
66664;BME280;59683;51.428;-1.994;2024-01-15T07:42:00;100253.31;;;-4.41;100.00
66664;BME280;59683;51.428;-1.994;2024-01-15T07:44:25;100271.41;;;-4.41;100.00
66664;BME280;59683;51.428;-1.994;2024-01-15T07:46:51;100274.97;;;-4.45;100.00
66664;BME280;59683;51.428;-1.994;2024-01-15T07:49:16;100269.91;;;-4.50;100.00
66664;BME280;59683;51.428;-1.994;2024-01-15T07:51:42;100275.13;;;-4.51;100.00
66664;BME280;59683;51.428;-1.994;2024-01-15T07:54:09;100274.25;;;-4.52;100.00
66664;BME280;59683;51.428;-1.994;2024-01-15T07:56:34;100285.59;;;-4.59;100.00
66664;BME280;59683;51.428;-1.994;2024-01-15T07:59:17;100280.59;;;-4.67;100.00
66664;BME280;59683;51.428;-1.994;2024-01-15T08:01:43;100296.19;;;-4.70;100.00
66664;BME280;59683;51.428;-1.994;2024-01-15T08:04:08;100289.41;;;-4.74;100.00
66664;BME280;59683;51.428;-1.994;2024-01-15T08:06:34;100295.47;;;-4.78;100.00
66664;BME280;59683;51.428;-1.994;2024-01-15T08:08:59;100292.91;;;-4.78;100.00
66664;BME280;59683;51.428;-1.994;2024-01-15T08:11:25;100297.22;;;-4.77;100.00
66664;BME280;59683;51.428;-1.994;2024-01-15T08:13:50;100299.72;;;-4.74;100.00
66664;BME280;59683;51.428;-1.994;2024-01-15T08:16:15;100299.69;;;-4.72;100.00
66664;BME280;59683;51.428;-1.994;2024-01-15T08:18:41;100303.91;;;-4.68;100.00
66664;BME280;59683;51.428;-1.994;2024-01-15T08:21:07;100309.53;;;-4.51;100.00
66664;BME280;59683;51.428;-1.994;2024-01-15T08:23:34;100314.88;;;-4.21;100.00
66664;BME280;59683;51.428;-1.994;2024-01-15T08:25:59;100328.34;;;-4.08;100.00
66664;BME280;59683;51.428;-1.994;2024-01-15T08:28:25;100331.72;;;-4.05;100.00
66664;BME280;59683;51.428;-1.994;2024-01-15T08:30:50;100322.28;;;-4.07;100.00
66664;BME280;59683;51.428;-1.994;2024-01-15T08:33:15;100339.59;;;-4.11;100.00
66664;BME280;59683;51.428;-1.994;2024-01-15T08:35:41;100344.69;;;-4.08;100.00
66664;BME280;59683;51.428;-1.994;2024-01-15T08:38:06;100335.28;;;-4.10;100.00
66664;BME280;59683;51.428;-1.994;2024-01-15T08:40:31;100338.81;;;-4.13;100.00
66664;BME280;59683;51.428;-1.994;2024-01-15T08:42:57;100334.47;;;-4.12;100.00
66664;BME280;59683;51.428;-1.994;2024-01-15T08:45:23;100335.09;;;-4.03;100.00
66664;BME280;59683;51.428;-1.994;2024-01-15T08:47:49;100344.25;;;-3.89;100.00
66664;BME280;59683;51.428;-1.994;2024-01-15T08:50:14;100349.00;;;-3.73;100.00
66664;BME280;59683;51.428;-1.994;2024-01-15T08:52:40;100352.28;;;-3.64;100.00
66664;BME280;59683;51.428;-1.994;2024-01-15T08:55:05;100354.81;;;-3.63;100.00
66664;BME280;59683;51.428;-1.994;2024-01-15T08:57:32;100350.63;;;-3.69;100.00
66664;BME280;59683;51.428;-1.994;2024-01-15T08:59:58;100349.69;;;-3.64;100.00
66664;BME280;59683;51.428;-1.994;2024-01-15T09:02:24;100343.72;;;-3.35;100.00
66664;BME280;59683;51.428;-1.994;2024-01-15T09:04:49;100347.00;;;-2.98;100.00
66664;BME280;59683;51.428;-1.994;2024-01-15T09:07:14;100354.31;;;-2.53;100.00
66664;BME280;59683;51.428;-1.994;2024-01-15T09:09:40;100358.13;;;-2.07;100.00
66664;BME280;59683;51.428;-1.994;2024-01-15T09:12:07;100378.38;;;-1.65;100.00
66664;BME280;59683;51.428;-1.994;2024-01-15T09:14:32;100386.13;;;-1.38;100.00
66664;BME280;59683;51.428;-1.994;2024-01-15T09:16:59;100393.44;;;-1.25;100.00
66664;BME280;59683;51.428;-1.994;2024-01-15T09:19:24;100404.56;;;-1.21;100.00
66664;BME280;59683;51.428;-1.994;2024-01-15T09:21:50;100394.16;;;-1.19;100.00
66664;BME280;59683;51.428;-1.994;2024-01-15T09:24:15;100391.91;;;-1.05;100.00
66664;BME280;59683;51.428;-1.994;2024-01-15T09:26:41;100392.25;;;-0.91;100.00
66664;BME280;59683;51.428;-1.994;2024-01-15T09:29:06;100397.34;;;-0.64;100.00
66664;BME280;59683;51.428;-1.994;2024-01-15T09:31:31;100400.44;;;-0.31;100.00
66664;BME280;59683;51.428;-1.994;2024-01-15T09:33:57;100405.25;;;0.02;100.00
66664;BME280;59683;51.428;-1.994;2024-01-15T09:36:24;100404.28;;;0.68;100.00
66664;BME280;59683;51.428;-1.994;2024-01-15T09:38:50;100408.75;;;1.45;100.00
66664;BME280;59683;51.428;-1.994;2024-01-15T09:41:16;100415.78;;;2.36;100.00
66664;BME280;59683;51.428;-1.994;2024-01-15T09:43:42;100399.81;;;2.77;100.00
66664;BME280;59683;51.428;-1.994;2024-01-15T09:46:08;100400.69;;;3.28;100.00
66664;BME280;59683;51.428;-1.994;2024-01-15T09:48:34;100385.97;;;3.58;100.00
66664;BME280;59683;51.428;-1.994;2024-01-15T09:51:01;100375.69;;;4.17;100.00
66664;BME280;59683;51.428;-1.994;2024-01-15T09:53:27;100364.28;;;4.78;100.00
66664;BME280;59683;51.428;-1.994;2024-01-15T09:55:53;100353.16;;;5.18;100.00
66664;BME280;59683;51.428;-1.994;2024-01-15T09:58:19;100346.13;;;5.18;100.00
66664;BME280;59683;51.428;-1.994;2024-01-15T10:00:44;100349.50;;;5.34;100.00
66664;BME280;59683;51.428;-1.994;2024-01-15T10:03:12;100354.56;;;5.23;100.00
66664;BME280;59683;51.428;-1.994;2024-01-15T10:05:38;100361.50;;;5.53;100.00
66664;BME280;59683;51.428;-1.994;2024-01-15T10:08:04;100363.41;;;5.92;100.00
66664;BME280;59683;51.428;-1.994;2024-01-15T10:10:30;100358.06;;;5.79;100.00
66664;BME280;59683;51.428;-1.994;2024-01-15T10:12:58;100366.06;;;6.05;100.00
66664;BME280;59683;51.428;-1.994;2024-01-15T10:15:23;100369.00;;;6.00;100.00
66664;BME280;59683;51.428;-1.994;2024-01-15T10:17:50;100375.47;;;6.49;100.00
66664;BME280;59683;51.428;-1.994;2024-01-15T10:20:15;100373.41;;;7.05;100.00
66664;BME280;59683;51.428;-1.994;2024-01-15T10:22:42;100375.63;;;7.24;100.00
66664;BME280;59683;51.428;-1.994;2024-01-15T10:25:12;100385.06;;;6.88;100.00
66664;BME280;59683;51.428;-1.994;2024-01-15T10:27:38;100385.91;;;6.76;100.00
66664;BME280;59683;51.428;-1.994;2024-01-15T10:30:05;100381.22;;;6.81;100.00
66664;BME280;59683;51.428;-1.994;2024-01-15T10:32:31;100384.56;;;6.83;100.00
66664;BME280;59683;51.428;-1.994;2024-01-15T10:34:57;100391.09;;;6.90;100.00
66664;BME280;59683;51.428;-1.994;2024-01-15T10:37:24;100375.28;;;7.28;100.00
66664;BME280;59683;51.428;-1.994;2024-01-15T10:39:49;100379.50;;;6.80;100.00
66664;BME280;59683;51.428;-1.994;2024-01-15T10:42:15;100376.53;;;6.59;100.00
66664;BME280;59683;51.428;-1.994;2024-01-15T10:44:41;100382.56;;;6.34;100.00
66664;BME280;59683;51.428;-1.994;2024-01-15T10:47:08;100379.56;;;6.13;100.00
66664;BME280;59683;51.428;-1.994;2024-01-15T10:49:34;100385.25;;;5.78;100.00
66664;BME280;59683;51.428;-1.994;2024-01-15T10:52:01;100381.56;;;6.10;100.00
66664;BME280;59683;51.428;-1.994;2024-01-15T10:54:27;100387.09;;;6.32;100.00
66664;BME280;59683;51.428;-1.994;2024-01-15T10:56:52;100388.59;;;6.49;100.00
66664;BME280;59683;51.428;-1.994;2024-01-15T10:59:20;100391.41;;;6.86;100.00
66664;BME280;59683;51.428;-1.994;2024-01-15T11:01:46;100395.41;;;7.17;100.00
66664;BME280;59683;51.428;-1.994;2024-01-15T11:04:12;100395.03;;;7.60;100.00
66664;BME280;59683;51.428;-1.994;2024-01-15T11:06:43;100397.59;;;7.61;100.00
66664;BME280;59683;51.428;-1.994;2024-01-15T11:09:09;100396.09;;;7.70;100.00
66664;BME280;59683;51.428;-1.994;2024-01-15T11:11:35;100396.72;;;7.73;100.00
66664;BME280;59683;51.428;-1.994;2024-01-15T11:14:01;100395.66;;;7.76;100.00
66664;BME280;59683;51.428;-1.994;2024-01-15T11:16:53;100402.94;;;7.72;100.00
66664;BME280;59683;51.428;-1.994;2024-01-15T11:19:18;100394.88;;;7.50;100.00
66664;BME280;59683;51.428;-1.994;2024-01-15T11:21:43;100396.91;;;7.08;100.00
66664;BME280;59683;51.428;-1.994;2024-01-15T11:24:09;100400.13;;;6.99;100.00
66664;BME280;59683;51.428;-1.994;2024-01-15T11:26:44;100398.25;;;7.14;100.00
66664;BME280;59683;51.428;-1.994;2024-01-15T11:29:32;100397.19;;;6.78;100.00
66664;BME280;59683;51.428;-1.994;2024-01-15T11:31:57;100394.03;;;6.86;100.00
66664;BME280;59683;51.428;-1.994;2024-01-15T11:34:53;100389.41;;;6.89;100.00
66664;BME280;59683;51.428;-1.994;2024-01-15T11:37:20;100386.25;;;7.35;100.00
66664;BME280;59683;51.428;-1.994;2024-01-15T11:39:46;100399.94;;;7.02;100.00
66664;BME280;59683;51.428;-1.994;2024-01-15T11:42:12;100397.44;;;7.26;100.00
66664;BME280;59683;51.428;-1.994;2024-01-15T11:44:38;100397.44;;;7.26;100.00
66664;BME280;59683;51.428;-1.994;2024-01-15T11:47:05;100400.84;;;7.52;100.00
66664;BME280;59683;51.428;-1.994;2024-01-15T11:50:01;100395.81;;;7.86;100.00
66664;BME280;59683;51.428;-1.994;2024-01-15T11:52:32;100402.53;;;7.66;100.00
66664;BME280;59683;51.428;-1.994;2024-01-15T11:57:51;100411.81;;;7.33;100.00
66664;BME280;59683;51.428;-1.994;2024-01-15T12:00:18;100414.16;;;7.38;100.00
66664;BME280;59683;51.428;-1.994;2024-01-15T12:02:46;100415.13;;;7.86;100.00
66664;BME280;59683;51.428;-1.994;2024-01-15T12:05:12;100428.69;;;8.06;100.00
66664;BME280;59683;51.428;-1.994;2024-01-15T12:07:48;100418.69;;;7.98;100.00
66664;BME280;59683;51.428;-1.994;2024-01-15T12:10:20;100414.25;;;7.49;100.00
66664;BME280;59683;51.428;-1.994;2024-01-15T12:15:15;100416.78;;;7.25;100.00
66664;BME280;59683;51.428;-1.994;2024-01-15T12:17:40;100411.88;;;7.70;100.00
66664;BME280;59683;51.428;-1.994;2024-01-15T12:20:06;100417.72;;;8.23;100.00
66664;BME280;59683;51.428;-1.994;2024-01-15T12:22:31;100421.28;;;8.11;100.00
66664;BME280;59683;51.428;-1.994;2024-01-15T12:24:57;100417.59;;;8.00;100.00
66664;BME280;59683;51.428;-1.994;2024-01-15T12:27:23;100414.16;;;7.25;100.00
66664;BME280;59683;51.428;-1.994;2024-01-15T12:29:49;100415.22;;;6.97;98.33
66664;BME280;59683;51.428;-1.994;2024-01-15T12:32:14;100418.09;;;6.67;98.88
66664;BME280;59683;51.428;-1.994;2024-01-15T12:34:39;100416.63;;;6.75;92.76